CheckWX is a tool to help pilots better visualize weather data.  It is not intended as a substitute for an official pre-flight weather briefing.

18:14:09 UTC

URRP METAR
Platov International Airport
Rostov Oblast, Russian Federation
Current

44 mins ago

URRP 261730Z 36002MPS CAVOK 14/12 Q1021 R23/CLRD70 TEMPO 2000 BR SCT004 RMK QFE758/1010
Observed
May-26 @ 17:30 UTC
Wind
  • 360° at 4 KTS
Visibility
10,000+ meters
Flight Rules
VFR
Cloud Levels
  • Clear skies
Temperature
14°C / 57°F
Dewpoint
12°C / 54°F
Humidity
88%
Altimeter
30.15" Hg
Pressure
1020.92 hPa
Previous

1 hour ago

URRP 261700Z 00000MPS 9999 FEW///CB 15/12 Q1021 R23/CLRD70 NOSIG RMK QFE757/1010
Observed
May-26 @ 17:00 UTC
Visibility
10,000+ meters
Cloud Levels
Temperature
15°C / 59°F
Dewpoint
12°C / 54°F
Humidity
82%
Altimeter
30.15" Hg
Pressure
1020.92 hPa
Previous

2 hours ago

URRP 261630Z VRB01MPS 9999 FEW///CB 16/12 Q1020 R23/CLRD70 NOSIG RMK QFE757/1010
Observed
May-26 @ 16:30 UTC
Wind
  • Variable at 2 KTS
Visibility
10,000+ meters
Cloud Levels
Temperature
16°C / 61°F
Dewpoint
12°C / 54°F
Humidity
77%
Altimeter
30.12" Hg
Pressure
1019.92 hPa